sensor_id;sensor_type;location;lat;lon;timestamp;P1;durP1;ratioP1;P2;durP2;ratioP2
40995;SDS011;26723;57.478;12.066;2022-08-21T00:01:29;1.13;;;1.10;;
40995;SDS011;26723;57.478;12.066;2022-08-21T00:04:38;0.90;;;0.90;;
40995;SDS011;26723;57.478;12.066;2022-08-21T00:08:03;0.95;;;0.95;;
40995;SDS011;26723;57.478;12.066;2022-08-21T00:11:12;1.30;;;1.13;;
40995;SDS011;26723;57.478;12.066;2022-08-21T00:14:20;1.15;;;1.02;;
40995;SDS011;26723;57.478;12.066;2022-08-21T00:17:30;1.13;;;1.02;;
40995;SDS011;26723;57.478;12.066;2022-08-21T00:20:38;1.10;;;1.10;;
40995;SDS011;26723;57.478;12.066;2022-08-21T00:23:47;1.30;;;1.20;;
40995;SDS011;26723;57.478;12.066;2022-08-21T00:26:56;1.27;;;1.20;;
40995;SDS011;26723;57.478;12.066;2022-08-21T00:30:06;1.85;;;1.50;;
40995;SDS011;26723;57.478;12.066;2022-08-21T00:33:16;1.40;;;1.30;;
40995;SDS011;26723;57.478;12.066;2022-08-21T00:36:24;1.30;;;1.20;;
40995;SDS011;26723;57.478;12.066;2022-08-21T00:39:33;1.77;;;1.45;;
40995;SDS011;26723;57.478;12.066;2022-08-21T00:42:41;1.42;;;1.33;;
40995;SDS011;26723;57.478;12.066;2022-08-21T00:45:58;1.35;;;1.25;;
40995;SDS011;26723;57.478;12.066;2022-08-21T00:49:09;1.50;;;1.40;;
40995;SDS011;26723;57.478;12.066;2022-08-21T00:52:21;1.70;;;1.52;;
40995;SDS011;26723;57.478;12.066;2022-08-21T00:55:32;1.30;;;1.30;;
40995;SDS011;26723;57.478;12.066;2022-08-21T00:58:41;1.37;;;1.27;;
40995;SDS011;26723;57.478;12.066;2022-08-21T01:01:51;1.20;;;1.20;;
40995;SDS011;26723;57.478;12.066;2022-08-21T01:05:01;1.50;;;1.40;;
40995;SDS011;26723;57.478;12.066;2022-08-21T01:08:09;1.48;;;1.35;;
40995;SDS011;26723;57.478;12.066;2022-08-21T01:11:19;1.35;;;1.30;;
40995;SDS011;26723;57.478;12.066;2022-08-21T01:14:28;1.43;;;1.33;;
40995;SDS011;26723;57.478;12.066;2022-08-21T01:17:37;1.20;;;1.20;;
40995;SDS011;26723;57.478;12.066;2022-08-21T01:20:52;1.40;;;1.23;;
40995;SDS011;26723;57.478;12.066;2022-08-21T01:24:08;1.15;;;1.15;;
40995;SDS011;26723;57.478;12.066;2022-08-21T01:27:17;1.30;;;1.20;;
40995;SDS011;26723;57.478;12.066;2022-08-21T01:30:26;1.67;;;1.30;;
40995;SDS011;26723;57.478;12.066;2022-08-21T01:33:35;1.50;;;1.35;;
40995;SDS011;26723;57.478;12.066;2022-08-21T01:36:45;1.53;;;1.40;;
40995;SDS011;26723;57.478;12.066;2022-08-21T01:39:54;1.30;;;1.23;;
40995;SDS011;26723;57.478;12.066;2022-08-21T01:43:02;1.35;;;1.25;;
40995;SDS011;26723;57.478;12.066;2022-08-21T01:46:10;2.17;;;1.33;;
40995;SDS011;26723;57.478;12.066;2022-08-21T01:49:20;1.30;;;1.20;;
40995;SDS011;26723;57.478;12.066;2022-08-21T01:52:30;1.10;;;1.00;;
40995;SDS011;26723;57.478;12.066;2022-08-21T01:55:38;1.67;;;1.30;;
40995;SDS011;26723;57.478;12.066;2022-08-21T01:58:46;1.50;;;1.40;;
40995;SDS011;26723;57.478;12.066;2022-08-21T02:01:55;2.20;;;1.27;;
40995;SDS011;26723;57.478;12.066;2022-08-21T02:05:04;1.30;;;1.30;;
40995;SDS011;26723;57.478;12.066;2022-08-21T02:08:14;1.47;;;1.37;;
40995;SDS011;26723;57.478;12.066;2022-08-21T02:11:22;1.03;;;1.03;;
40995;SDS011;26723;57.478;12.066;2022-08-21T02:14:30;0.97;;;0.97;;
40995;SDS011;26723;57.478;12.066;2022-08-21T02:17:39;1.20;;;1.10;;
40995;SDS011;26723;57.478;12.066;2022-08-21T02:20:49;1.50;;;1.40;;
40995;SDS011;26723;57.478;12.066;2022-08-21T02:24:03;1.17;;;1.03;;
40995;SDS011;26723;57.478;12.066;2022-08-21T02:27:12;1.40;;;1.30;;
40995;SDS011;26723;57.478;12.066;2022-08-21T02:30:22;1.90;;;1.47;;
40995;SDS011;26723;57.478;12.066;2022-08-21T02:33:32;1.20;;;1.10;;
40995;SDS011;26723;57.478;12.066;2022-08-21T02:36:41;1.30;;;1.20;;
40995;SDS011;26723;57.478;12.066;2022-08-21T02:39:50;1.53;;;1.10;;
40995;SDS011;26723;57.478;12.066;2022-08-21T02:42:59;1.40;;;1.10;;
40995;SDS011;26723;57.478;12.066;2022-08-21T02:46:08;1.47;;;1.10;;
40995;SDS011;26723;57.478;12.066;2022-08-21T02:49:18;1.00;;;1.00;;
40995;SDS011;26723;57.478;12.066;2022-08-21T02:52:26;1.23;;;1.13;;
40995;SDS011;26723;57.478;12.066;2022-08-21T02:55:36;1.10;;;1.10;;
40995;SDS011;26723;57.478;12.066;2022-08-21T02:58:46;1.33;;;1.20;;
40995;SDS011;26723;57.478;12.066;2022-08-21T03:01:55;1.30;;;1.20;;
40995;SDS011;26723;57.478;12.066;2022-08-21T03:05:04;1.07;;;1.00;;
40995;SDS011;26723;57.478;12.066;2022-08-21T03:08:13;1.30;;;1.20;;
40995;SDS011;26723;57.478;12.066;2022-08-21T03:11:24;1.10;;;1.10;;
40995;SDS011;26723;57.478;12.066;2022-08-21T03:14:32;1.00;;;1.00;;
40995;SDS011;26723;57.478;12.066;2022-08-21T03:17:40;0.90;;;0.90;;
40995;SDS011;26723;57.478;12.066;2022-08-21T03:20:52;1.10;;;1.10;;
40995;SDS011;26723;57.478;12.066;2022-08-21T03:24:00;2.00;;;1.03;;
40995;SDS011;26723;57.478;12.066;2022-08-21T03:27:11;1.10;;;1.10;;
40995;SDS011;26723;57.478;12.066;2022-08-21T03:30:20;1.50;;;1.40;;
40995;SDS011;26723;57.478;12.066;2022-08-21T03:33:28;1.10;;;1.00;;
40995;SDS011;26723;57.478;12.066;2022-08-21T03:36:37;1.20;;;1.10;;
40995;SDS011;26723;57.478;12.066;2022-08-21T03:39:45;1.20;;;1.20;;
40995;SDS011;26723;57.478;12.066;2022-08-21T03:42:55;0.80;;;0.80;;
40995;SDS011;26723;57.478;12.066;2022-08-21T03:46:05;2.30;;;1.20;;
40995;SDS011;26723;57.478;12.066;2022-08-21T03:49:14;1.33;;;0.90;;
40995;SDS011;26723;57.478;12.066;2022-08-21T03:52:22;1.07;;;1.07;;
40995;SDS011;26723;57.478;12.066;2022-08-21T03:55:30;1.13;;;1.10;;
40995;SDS011;26723;57.478;12.066;2022-08-21T03:58:40;1.17;;;1.10;;
40995;SDS011;26723;57.478;12.066;2022-08-21T04:01:52;1.67;;;1.10;;
40995;SDS011;26723;57.478;12.066;2022-08-21T04:05:01;1.13;;;1.03;;
40995;SDS011;26723;57.478;12.066;2022-08-21T04:08:09;1.00;;;1.00;;
40995;SDS011;26723;57.478;12.066;2022-08-21T04:11:18;1.60;;;1.03;;
40995;SDS011;26723;57.478;12.066;2022-08-21T04:14:28;1.07;;;1.00;;
40995;SDS011;26723;57.478;12.066;2022-08-21T04:17:36;1.47;;;1.37;;
40995;SDS011;26723;57.478;12.066;2022-08-21T04:20:45;1.43;;;1.13;;
40995;SDS011;26723;57.478;12.066;2022-08-21T04:23:56;1.00;;;1.00;;
40995;SDS011;26723;57.478;12.066;2022-08-21T04:27:04;1.10;;;1.10;;
40995;SDS011;26723;57.478;12.066;2022-08-21T04:30:14;1.10;;;1.00;;
40995;SDS011;26723;57.478;12.066;2022-08-21T04:33:23;0.80;;;0.80;;
40995;SDS011;26723;57.478;12.066;2022-08-21T04:36:31;1.63;;;1.27;;
40995;SDS011;26723;57.478;12.066;2022-08-21T04:39:40;1.00;;;1.00;;
40995;SDS011;26723;57.478;12.066;2022-08-21T04:42:49;1.33;;;1.03;;
40995;SDS011;26723;57.478;12.066;2022-08-21T04:46:00;0.80;;;0.80;;
40995;SDS011;26723;57.478;12.066;2022-08-21T04:49:08;0.83;;;0.83;;
40995;SDS011;26723;57.478;12.066;2022-08-21T04:52:17;0.73;;;0.73;;
40995;SDS011;26723;57.478;12.066;2022-08-21T04:55:28;0.93;;;0.93;;
40995;SDS011;26723;57.478;12.066;2022-08-21T04:58:36;1.10;;;1.10;;
40995;SDS011;26723;57.478;12.066;2022-08-21T05:01:47;1.23;;;1.20;;
40995;SDS011;26723;57.478;12.066;2022-08-21T05:04:56;1.00;;;1.00;;
40995;SDS011;26723;57.478;12.066;2022-08-21T05:08:05;1.00;;;1.00;;
40995;SDS011;26723;57.478;12.066;2022-08-21T05:11:14;3.17;;;1.20;;
40995;SDS011;26723;57.478;12.066;2022-08-21T05:14:23;0.90;;;0.90;;
40995;SDS011;26723;57.478;12.066;2022-08-21T05:17:32;2.13;;;1.00;;
40995;SDS011;26723;57.478;12.066;2022-08-21T05:20:40;0.93;;;0.93;;
40995;SDS011;26723;57.478;12.066;2022-08-21T05:23:50;1.10;;;1.10;;
40995;SDS011;26723;57.478;12.066;2022-08-21T05:26:59;0.90;;;0.90;;
40995;SDS011;26723;57.478;12.066;2022-08-21T05:30:09;1.30;;;1.20;;
40995;SDS011;26723;57.478;12.066;2022-08-21T05:33:19;1.47;;;0.80;;
40995;SDS011;26723;57.478;12.066;2022-08-21T05:36:28;1.03;;;1.00;;
40995;SDS011;26723;57.478;12.066;2022-08-21T05:39:36;0.80;;;0.80;;
40995;SDS011;26723;57.478;12.066;2022-08-21T05:43:04;0.90;;;0.90;;
40995;SDS011;26723;57.478;12.066;2022-08-21T05:46:12;1.17;;;1.00;;
40995;SDS011;26723;57.478;12.066;2022-08-21T05:49:24;1.05;;;1.05;;
40995;SDS011;26723;57.478;12.066;2022-08-21T05:52:32;0.65;;;0.65;;
40995;SDS011;26723;57.478;12.066;2022-08-21T05:55:40;1.10;;;1.05;;
40995;SDS011;26723;57.478;12.066;2022-08-21T05:58:52;1.10;;;1.10;;
40995;SDS011;26723;57.478;12.066;2022-08-21T06:02:01;1.07;;;0.90;;
40995;SDS011;26723;57.478;12.066;2022-08-21T06:05:12;1.00;;;1.00;;
40995;SDS011;26723;57.478;12.066;2022-08-21T06:08:41;1.10;;;1.00;;
40995;SDS011;26723;57.478;12.066;2022-08-21T06:11:49;1.02;;;0.93;;
40995;SDS011;26723;57.478;12.066;2022-08-21T06:14:57;1.17;;;1.05;;
40995;SDS011;26723;57.478;12.066;2022-08-21T06:18:07;1.00;;;1.00;;
40995;SDS011;26723;57.478;12.066;2022-08-21T06:21:16;0.90;;;0.90;;
40995;SDS011;26723;57.478;12.066;2022-08-21T06:24:25;0.73;;;0.73;;
40995;SDS011;26723;57.478;12.066;2022-08-21T06:27:34;1.23;;;0.90;;
40995;SDS011;26723;57.478;12.066;2022-08-21T06:30:42;0.90;;;0.90;;
40995;SDS011;26723;57.478;12.066;2022-08-21T06:33:50;1.80;;;1.10;;
40995;SDS011;26723;57.478;12.066;2022-08-21T06:37:00;0.80;;;0.75;;
40995;SDS011;26723;57.478;12.066;2022-08-21T06:40:08;0.93;;;0.93;;
40995;SDS011;26723;57.478;12.066;2022-08-21T06:43:18;0.80;;;0.80;;
40995;SDS011;26723;57.478;12.066;2022-08-21T06:46:41;0.63;;;0.63;;
40995;SDS011;26723;57.478;12.066;2022-08-21T06:49:52;1.65;;;0.90;;
40995;SDS011;26723;57.478;12.066;2022-08-21T06:53:03;0.60;;;0.60;;
40995;SDS011;26723;57.478;12.066;2022-08-21T06:56:12;1.10;;;1.00;;
40995;SDS011;26723;57.478;12.066;2022-08-21T06:59:21;0.82;;;0.82;;
40995;SDS011;26723;57.478;12.066;2022-08-21T07:02:29;1.27;;;0.90;;
40995;SDS011;26723;57.478;12.066;2022-08-21T07:05:37;0.80;;;0.80;;
40995;SDS011;26723;57.478;12.066;2022-08-21T07:08:47;0.70;;;0.70;;
40995;SDS011;26723;57.478;12.066;2022-08-21T07:11:55;0.98;;;0.85;;
40995;SDS011;26723;57.478;12.066;2022-08-21T07:15:04;0.70;;;0.70;;
40995;SDS011;26723;57.478;12.066;2022-08-21T07:18:13;0.82;;;0.80;;
40995;SDS011;26723;57.478;12.066;2022-08-21T07:21:22;0.70;;;0.70;;
40995;SDS011;26723;57.478;12.066;2022-08-21T07:24:33;1.05;;;0.80;;
40995;SDS011;26723;57.478;12.066;2022-08-21T07:27:41;1.10;;;0.80;;
40995;SDS011;26723;57.478;12.066;2022-08-21T07:30:49;0.90;;;0.90;;
40995;SDS011;26723;57.478;12.066;2022-08-21T07:33:59;0.80;;;0.80;;
40995;SDS011;26723;57.478;12.066;2022-08-21T07:37:07;0.95;;;0.95;;
40995;SDS011;26723;57.478;12.066;2022-08-21T07:40:17;1.92;;;1.10;;
40995;SDS011;26723;57.478;12.066;2022-08-21T07:43:26;1.38;;;0.95;;
40995;SDS011;26723;57.478;12.066;2022-08-21T07:46:34;1.70;;;0.90;;
40995;SDS011;26723;57.478;12.066;2022-08-21T07:49:42;0.90;;;0.90;;
40995;SDS011;26723;57.478;12.066;2022-08-21T07:52:52;0.98;;;0.90;;
40995;SDS011;26723;57.478;12.066;2022-08-21T07:56:02;1.08;;;0.82;;
40995;SDS011;26723;57.478;12.066;2022-08-21T07:59:11;1.00;;;0.75;;
40995;SDS011;26723;57.478;12.066;2022-08-21T08:02:23;1.50;;;1.15;;
40995;SDS011;26723;57.478;12.066;2022-08-21T08:05:32;1.42;;;1.00;;
40995;SDS011;26723;57.478;12.066;2022-08-21T08:08:43;0.80;;;0.80;;
40995;SDS011;26723;57.478;12.066;2022-08-21T08:11:54;0.77;;;0.77;;
40995;SDS011;26723;57.478;12.066;2022-08-21T08:15:02;0.80;;;0.80;;
40995;SDS011;26723;57.478;12.066;2022-08-21T08:18:13;1.42;;;0.85;;
40995;SDS011;26723;57.478;12.066;2022-08-21T08:21:21;1.38;;;0.70;;
40995;SDS011;26723;57.478;12.066;2022-08-21T08:24:29;1.33;;;1.23;;
40995;SDS011;26723;57.478;12.066;2022-08-21T08:27:39;0.80;;;0.80;;
40995;SDS011;26723;57.478;12.066;2022-08-21T08:30:47;1.10;;;1.00;;
40995;SDS011;26723;57.478;12.066;2022-08-21T08:33:56;1.92;;;0.77;;
40995;SDS011;26723;57.478;12.066;2022-08-21T08:37:06;0.90;;;0.90;;
40995;SDS011;26723;57.478;12.066;2022-08-21T08:40:18;0.80;;;0.80;;
40995;SDS011;26723;57.478;12.066;2022-08-21T08:43:32;0.82;;;0.82;;
40995;SDS011;26723;57.478;12.066;2022-08-21T08:46:43;1.17;;;0.90;;
40995;SDS011;26723;57.478;12.066;2022-08-21T08:49:55;0.70;;;0.70;;
40995;SDS011;26723;57.478;12.066;2022-08-21T08:53:11;1.30;;;0.80;;
40995;SDS011;26723;57.478;12.066;2022-08-21T08:56:28;1.38;;;0.73;;
40995;SDS011;26723;57.478;12.066;2022-08-21T08:59:43;0.70;;;0.68;;
40995;SDS011;26723;57.478;12.066;2022-08-21T09:02:56;1.13;;;0.68;;
40995;SDS011;26723;57.478;12.066;2022-08-21T09:06:09;0.88;;;0.75;;
40995;SDS011;26723;57.478;12.066;2022-08-21T09:09:29;0.80;;;0.80;;
40995;SDS011;26723;57.478;12.066;2022-08-21T09:12:50;0.75;;;0.70;;
40995;SDS011;26723;57.478;12.066;2022-08-21T09:16:16;1.15;;;0.90;;
40995;SDS011;26723;57.478;12.066;2022-08-21T09:19:38;1.10;;;0.90;;
40995;SDS011;26723;57.478;12.066;2022-08-21T09:22:58;0.80;;;0.70;;
40995;SDS011;26723;57.478;12.066;2022-08-21T09:26:13;0.60;;;0.57;;
40995;SDS011;26723;57.478;12.066;2022-08-21T09:29:23;0.80;;;0.80;;
40995;SDS011;26723;57.478;12.066;2022-08-21T09:32:37;0.63;;;0.63;;
40995;SDS011;26723;57.478;12.066;2022-08-21T09:35:48;0.55;;;0.55;;
40995;SDS011;26723;57.478;12.066;2022-08-21T09:38:58;0.82;;;0.82;;
40995;SDS011;26723;57.478;12.066;2022-08-21T09:42:08;0.68;;;0.55;;
40995;SDS011;26723;57.478;12.066;2022-08-21T09:45:18;0.60;;;0.60;;
40995;SDS011;26723;57.478;12.066;2022-08-21T09:48:27;1.13;;;0.60;;
40995;SDS011;26723;57.478;12.066;2022-08-21T09:51:38;0.88;;;0.88;;
40995;SDS011;26723;57.478;12.066;2022-08-21T09:54:58;0.80;;;0.60;;
40995;SDS011;26723;57.478;12.066;2022-08-21T09:58:29;0.70;;;0.70;;
40995;SDS011;26723;57.478;12.066;2022-08-21T10:01:41;2.30;;;0.60;;
40995;SDS011;26723;57.478;12.066;2022-08-21T10:04:53;1.00;;;0.90;;
40995;SDS011;26723;57.478;12.066;2022-08-21T10:08:02;0.70;;;0.70;;
40995;SDS011;26723;57.478;12.066;2022-08-21T10:11:12;0.90;;;0.90;;
40995;SDS011;26723;57.478;12.066;2022-08-21T10:14:26;1.40;;;0.77;;
40995;SDS011;26723;57.478;12.066;2022-08-21T10:17:51;0.80;;;0.80;;
40995;SDS011;26723;57.478;12.066;2022-08-21T10:21:13;1.13;;;0.70;;
40995;SDS011;26723;57.478;12.066;2022-08-21T10:24:29;1.35;;;0.85;;
40995;SDS011;26723;57.478;12.066;2022-08-21T10:27:43;0.70;;;0.70;;
40995;SDS011;26723;57.478;12.066;2022-08-21T10:31:02;0.47;;;0.47;;
40995;SDS011;26723;57.478;12.066;2022-08-21T10:34:19;1.00;;;0.90;;
40995;SDS011;26723;57.478;12.066;2022-08-21T10:37:39;0.80;;;0.80;;
40995;SDS011;26723;57.478;12.066;2022-08-21T10:40:58;0.82;;;0.70;;
40995;SDS011;26723;57.478;12.066;2022-08-21T10:44:13;1.35;;;0.50;;
40995;SDS011;26723;57.478;12.066;2022-08-21T10:47:33;1.92;;;0.80;;
40995;SDS011;26723;57.478;12.066;2022-08-21T10:50:44;0.52;;;0.50;;
40995;SDS011;26723;57.478;12.066;2022-08-21T10:54:02;0.70;;;0.60;;
40995;SDS011;26723;57.478;12.066;2022-08-21T10:57:19;1.10;;;0.70;;
40995;SDS011;26723;57.478;12.066;2022-08-21T11:00:39;0.60;;;0.60;;
40995;SDS011;26723;57.478;12.066;2022-08-21T11:03:51;0.88;;;0.60;;
40995;SDS011;26723;57.478;12.066;2022-08-21T11:07:20;0.73;;;0.73;;
40995;SDS011;26723;57.478;12.066;2022-08-21T11:10:42;0.98;;;0.70;;
40995;SDS011;26723;57.478;12.066;2022-08-21T11:14:04;0.60;;;0.43;;
40995;SDS011;26723;57.478;12.066;2022-08-21T11:17:21;1.27;;;0.60;;
40995;SDS011;26723;57.478;12.066;2022-08-21T11:20:36;0.65;;;0.65;;
40995;SDS011;26723;57.478;12.066;2022-08-21T11:23:53;0.98;;;0.70;;
40995;SDS011;26723;57.478;12.066;2022-08-21T11:27:16;0.88;;;0.88;;
40995;SDS011;26723;57.478;12.066;2022-08-21T11:30:32;0.82;;;0.55;;
40995;SDS011;26723;57.478;12.066;2022-08-21T11:33:54;2.13;;;0.70;;
40995;SDS011;26723;57.478;12.066;2022-08-21T11:37:14;0.60;;;0.60;;
40995;SDS011;26723;57.478;12.066;2022-08-21T11:40:37;1.15;;;0.80;;
40995;SDS011;26723;57.478;12.066;2022-08-21T11:43:58;0.77;;;0.70;;
40995;SDS011;26723;57.478;12.066;2022-08-21T11:47:13;1.00;;;0.90;;
40995;SDS011;26723;57.478;12.066;2022-08-21T11:50:27;0.52;;;0.52;;
40995;SDS011;26723;57.478;12.066;2022-08-21T11:53:42;0.47;;;0.47;;
40995;SDS011;26723;57.478;12.066;2022-08-21T11:57:01;2.05;;;0.77;;
40995;SDS011;26723;57.478;12.066;2022-08-21T12:00:16;1.65;;;1.00;;
40995;SDS011;26723;57.478;12.066;2022-08-21T12:03:28;0.82;;;0.57;;
40995;SDS011;26723;57.478;12.066;2022-08-21T12:06:40;0.70;;;0.70;;
40995;SDS011;26723;57.478;12.066;2022-08-21T12:09:52;0.80;;;0.80;;
40995;SDS011;26723;57.478;12.066;2022-08-21T12:13:11;1.10;;;1.00;;
40995;SDS011;26723;57.478;12.066;2022-08-21T12:16:49;0.98;;;0.80;;
40995;SDS011;26723;57.478;12.066;2022-08-21T12:19:58;0.70;;;0.70;;
40995;SDS011;26723;57.478;12.066;2022-08-21T12:26:52;2.33;;;0.80;;
40995;SDS011;26723;57.478;12.066;2022-08-21T12:30:02;0.75;;;0.75;;
40995;SDS011;26723;57.478;12.066;2022-08-21T12:33:22;0.85;;;0.73;;
40995;SDS011;26723;57.478;12.066;2022-08-21T12:36:39;1.75;;;1.00;;
40995;SDS011;26723;57.478;12.066;2022-08-21T12:39:52;0.70;;;0.70;;
40995;SDS011;26723;57.478;12.066;2022-08-21T12:43:01;0.90;;;0.77;;
40995;SDS011;26723;57.478;12.066;2022-08-21T12:46:15;0.85;;;0.60;;
40995;SDS011;26723;57.478;12.066;2022-08-21T12:49:27;0.90;;;0.88;;
40995;SDS011;26723;57.478;12.066;2022-08-21T12:52:41;0.70;;;0.70;;
40995;SDS011;26723;57.478;12.066;2022-08-21T12:56:01;1.50;;;0.88;;
40995;SDS011;26723;57.478;12.066;2022-08-21T12:59:11;0.98;;;0.88;;
40995;SDS011;26723;57.478;12.066;2022-08-21T13:02:20;0.75;;;0.75;;
40995;SDS011;26723;57.478;12.066;2022-08-21T13:05:33;1.52;;;0.82;;
40995;SDS011;26723;57.478;12.066;2022-08-21T13:08:44;1.02;;;0.80;;
40995;SDS011;26723;57.478;12.066;2022-08-21T13:11:54;1.10;;;1.00;;
40995;SDS011;26723;57.478;12.066;2022-08-21T13:15:04;0.77;;;0.77;;
40995;SDS011;26723;57.478;12.066;2022-08-21T13:18:19;1.08;;;0.95;;
40995;SDS011;26723;57.478;12.066;2022-08-21T13:21:32;0.95;;;0.93;;
40995;SDS011;26723;57.478;12.066;2022-08-21T13:24:46;0.93;;;0.90;;
40995;SDS011;26723;57.478;12.066;2022-08-21T13:27:57;1.00;;;0.90;;
40995;SDS011;26723;57.478;12.066;2022-08-21T13:31:08;2.53;;;1.02;;
40995;SDS011;26723;57.478;12.066;2022-08-21T13:34:20;0.88;;;0.88;;
40995;SDS011;26723;57.478;12.066;2022-08-21T13:37:32;0.80;;;0.80;;
40995;SDS011;26723;57.478;12.066;2022-08-21T13:40:44;0.70;;;0.70;;
40995;SDS011;26723;57.478;12.066;2022-08-21T13:43:57;0.80;;;0.80;;
40995;SDS011;26723;57.478;12.066;2022-08-21T13:47:06;0.93;;;0.82;;
40995;SDS011;26723;57.478;12.066;2022-08-21T13:50:21;2.60;;;0.93;;
40995;SDS011;26723;57.478;12.066;2022-08-21T13:53:35;0.90;;;0.90;;
40995;SDS011;26723;57.478;12.066;2022-08-21T13:56:52;0.75;;;0.75;;
40995;SDS011;26723;57.478;12.066;2022-08-21T14:00:09;1.40;;;1.08;;
40995;SDS011;26723;57.478;12.066;2022-08-21T14:03:26;0.90;;;0.90;;
40995;SDS011;26723;57.478;12.066;2022-08-21T14:06:39;0.90;;;0.80;;
40995;SDS011;26723;57.478;12.066;2022-08-21T14:09:48;1.23;;;0.80;;
40995;SDS011;26723;57.478;12.066;2022-08-21T14:12:57;0.95;;;0.90;;
40995;SDS011;26723;57.478;12.066;2022-08-21T14:16:13;0.90;;;0.90;;
40995;SDS011;26723;57.478;12.066;2022-08-21T14:19:25;1.40;;;0.85;;
40995;SDS011;26723;57.478;12.066;2022-08-21T14:22:37;1.25;;;1.10;;
40995;SDS011;26723;57.478;12.066;2022-08-21T14:25:47;0.68;;;0.68;;
40995;SDS011;26723;57.478;12.066;2022-08-21T14:28:57;0.70;;;0.70;;
40995;SDS011;26723;57.478;12.066;2022-08-21T14:32:15;0.93;;;0.93;;
40995;SDS011;26723;57.478;12.066;2022-08-21T14:35:30;1.13;;;0.80;;
40995;SDS011;26723;57.478;12.066;2022-08-21T14:38:39;1.92;;;0.68;;
40995;SDS011;26723;57.478;12.066;2022-08-21T14:41:50;1.17;;;0.77;;
40995;SDS011;26723;57.478;12.066;2022-08-21T14:45:03;0.73;;;0.70;;
40995;SDS011;26723;57.478;12.066;2022-08-21T14:48:18;1.58;;;0.77;;
40995;SDS011;26723;57.478;12.066;2022-08-21T14:51:26;0.80;;;0.55;;
40995;SDS011;26723;57.478;12.066;2022-08-21T14:54:34;1.20;;;0.70;;
40995;SDS011;26723;57.478;12.066;2022-08-21T14:57:44;0.70;;;0.70;;
40995;SDS011;26723;57.478;12.066;2022-08-21T15:00:54;1.00;;;0.90;;
40995;SDS011;26723;57.478;12.066;2022-08-21T15:04:04;1.65;;;0.88;;
40995;SDS011;26723;57.478;12.066;2022-08-21T15:07:12;1.33;;;0.95;;
40995;SDS011;26723;57.478;12.066;2022-08-21T15:10:20;0.90;;;0.90;;
40995;SDS011;26723;57.478;12.066;2022-08-21T15:13:30;1.30;;;0.98;;
40995;SDS011;26723;57.478;12.066;2022-08-21T15:16:39;1.13;;;0.80;;
40995;SDS011;26723;57.478;12.066;2022-08-21T15:19:48;1.27;;;0.90;;
40995;SDS011;26723;57.478;12.066;2022-08-21T15:22:56;1.05;;;0.85;;
40995;SDS011;26723;57.478;12.066;2022-08-21T15:26:08;1.13;;;0.80;;
40995;SDS011;26723;57.478;12.066;2022-08-21T15:29:17;0.98;;;0.98;;
40995;SDS011;26723;57.478;12.066;2022-08-21T15:32:28;1.50;;;1.10;;
40995;SDS011;26723;57.478;12.066;2022-08-21T15:35:37;1.77;;;1.10;;
40995;SDS011;26723;57.478;12.066;2022-08-21T15:38:46;1.85;;;1.02;;
40995;SDS011;26723;57.478;12.066;2022-08-21T15:41:55;1.70;;;1.05;;
40995;SDS011;26723;57.478;12.066;2022-08-21T15:45:05;1.17;;;1.08;;
40995;SDS011;26723;57.478;12.066;2022-08-21T15:48:14;1.17;;;1.08;;
40995;SDS011;26723;57.478;12.066;2022-08-21T15:51:26;1.70;;;1.10;;
40995;SDS011;26723;57.478;12.066;2022-08-21T15:54:37;1.38;;;1.27;;
40995;SDS011;26723;57.478;12.066;2022-08-21T15:57:47;1.15;;;0.93;;
40995;SDS011;26723;57.478;12.066;2022-08-21T16:01:04;1.33;;;1.05;;
40995;SDS011;26723;57.478;12.066;2022-08-21T16:04:13;2.33;;;1.10;;
40995;SDS011;26723;57.478;12.066;2022-08-21T16:07:27;0.90;;;0.90;;
40995;SDS011;26723;57.478;12.066;2022-08-21T16:10:35;1.17;;;0.93;;
40995;SDS011;26723;57.478;12.066;2022-08-21T16:13:45;0.90;;;0.90;;
40995;SDS011;26723;57.478;12.066;2022-08-21T16:17:02;0.73;;;0.73;;
40995;SDS011;26723;57.478;12.066;2022-08-21T16:20:12;0.88;;;0.82;;
40995;SDS011;26723;57.478;12.066;2022-08-21T16:23:22;1.17;;;0.80;;
40995;SDS011;26723;57.478;12.066;2022-08-21T16:26:31;1.02;;;0.68;;
40995;SDS011;26723;57.478;12.066;2022-08-21T16:29:39;0.90;;;0.90;;
40995;SDS011;26723;57.478;12.066;2022-08-21T16:32:49;2.33;;;0.98;;
40995;SDS011;26723;57.478;12.066;2022-08-21T16:35:59;1.08;;;0.82;;
40995;SDS011;26723;57.478;12.066;2022-08-21T16:39:08;0.73;;;0.73;;
40995;SDS011;26723;57.478;12.066;2022-08-21T16:42:18;1.05;;;0.85;;
40995;SDS011;26723;57.478;12.066;2022-08-21T16:45:31;1.20;;;1.20;;
40995;SDS011;26723;57.478;12.066;2022-08-21T16:48:41;1.83;;;0.90;;
40995;SDS011;26723;57.478;12.066;2022-08-21T16:51:50;0.98;;;0.98;;
40995;SDS011;26723;57.478;12.066;2022-08-21T16:54:59;1.10;;;1.00;;
40995;SDS011;26723;57.478;12.066;2022-08-21T16:58:08;1.85;;;0.80;;
40995;SDS011;26723;57.478;12.066;2022-08-21T17:01:20;1.30;;;1.20;;
40995;SDS011;26723;57.478;12.066;2022-08-21T17:04:34;1.20;;;1.10;;
40995;SDS011;26723;57.478;12.066;2022-08-21T17:07:43;1.80;;;0.98;;
40995;SDS011;26723;57.478;12.066;2022-08-21T17:10:52;1.30;;;1.17;;
40995;SDS011;26723;57.478;12.066;2022-08-21T17:14:02;1.00;;;0.90;;
40995;SDS011;26723;57.478;12.066;2022-08-21T17:17:13;1.40;;;0.80;;
40995;SDS011;26723;57.478;12.066;2022-08-21T17:20:24;3.55;;;1.02;;
40995;SDS011;26723;57.478;12.066;2022-08-21T17:23:32;1.42;;;1.00;;
40995;SDS011;26723;57.478;12.066;2022-08-21T17:26:43;1.30;;;1.20;;
40995;SDS011;26723;57.478;12.066;2022-08-21T17:29:52;1.20;;;1.10;;
40995;SDS011;26723;57.478;12.066;2022-08-21T17:33:01;1.92;;;1.30;;
40995;SDS011;26723;57.478;12.066;2022-08-21T17:36:12;1.27;;;1.17;;
40995;SDS011;26723;57.478;12.066;2022-08-21T17:39:21;2.28;;;1.05;;
40995;SDS011;26723;57.478;12.066;2022-08-21T17:42:32;1.42;;;1.17;;
40995;SDS011;26723;57.478;12.066;2022-08-21T17:45:41;0.90;;;0.90;;
40995;SDS011;26723;57.478;12.066;2022-08-21T17:48:50;1.90;;;1.23;;
40995;SDS011;26723;57.478;12.066;2022-08-21T17:52:00;1.25;;;1.05;;
40995;SDS011;26723;57.478;12.066;2022-08-21T17:55:08;1.33;;;1.23;;
40995;SDS011;26723;57.478;12.066;2022-08-21T17:58:17;1.25;;;1.25;;
40995;SDS011;26723;57.478;12.066;2022-08-21T18:01:26;1.20;;;1.15;;
40995;SDS011;26723;57.478;12.066;2022-08-21T18:04:39;1.40;;;1.15;;
40995;SDS011;26723;57.478;12.066;2022-08-21T18:07:49;1.00;;;0.90;;
40995;SDS011;26723;57.478;12.066;2022-08-21T18:10:57;1.00;;;0.90;;
40995;SDS011;26723;57.478;12.066;2022-08-21T18:14:06;1.30;;;1.00;;
40995;SDS011;26723;57.478;12.066;2022-08-21T18:17:15;1.23;;;0.82;;
40995;SDS011;26723;57.478;12.066;2022-08-21T18:20:26;1.23;;;1.05;;
40995;SDS011;26723;57.478;12.066;2022-08-21T18:23:36;1.10;;;1.10;;
40995;SDS011;26723;57.478;12.066;2022-08-21T18:26:50;1.45;;;1.15;;
40995;SDS011;26723;57.478;12.066;2022-08-21T18:30:00;1.27;;;1.13;;
40995;SDS011;26723;57.478;12.066;2022-08-21T18:33:11;1.13;;;1.00;;
40995;SDS011;26723;57.478;12.066;2022-08-21T18:36:20;1.40;;;1.27;;
40995;SDS011;26723;57.478;12.066;2022-08-21T18:39:32;1.80;;;1.20;;
40995;SDS011;26723;57.478;12.066;2022-08-21T18:42:44;1.33;;;1.00;;
40995;SDS011;26723;57.478;12.066;2022-08-21T18:46:01;0.95;;;0.95;;
40995;SDS011;26723;57.478;12.066;2022-08-21T18:49:10;0.95;;;0.95;;
40995;SDS011;26723;57.478;12.066;2022-08-21T18:52:18;1.20;;;1.20;;
40995;SDS011;26723;57.478;12.066;2022-08-21T18:55:28;1.45;;;0.95;;
40995;SDS011;26723;57.478;12.066;2022-08-21T18:58:36;1.30;;;0.93;;